Time;durP1;ratioP1;P1;durP2;ratioP2;P2;SDS_P1;SDS_P2;PMS_P1;PMS_P2;Temp;Humidity;BMP_temperature;BMP_pressure;BME280_temperature;BME280_humidity;BME280_pressure;Samples;Min_cycle;Max_cycle;Signal;HPM_P1;HPM_P2
2022/10/01 00:01:07;;;;;;;0.10;0.10;;;19.60;62.10;;;;;;5056708;28;20069;-43
2022/10/01 00:03:33;;;;;;;0.43;0.10;;;19.60;62.30;;;;;;5046976;28;20045;-43
2022/10/01 00:06:07;;;;;;;0.28;0.00;;;19.60;62.30;;;;;;5052179;28;20045;-42
2022/10/01 00:08:33;;;;;;;0.00;0.00;;;19.60;62.20;;;;;;5059522;28;20055;-42
2022/10/01 00:11:00;;;;;;;0.00;0.00;;;19.60;62.20;;;;;;5063280;28;20029;-42
2022/10/01 00:13:26;;;;;;;0.03;0.00;;;19.60;62.30;;;;;;5064575;28;20384;-42
2022/10/01 00:15:52;;;;;;;0.00;0.00;;;19.50;62.60;;;;;;5065567;28;20086;-42
2022/10/01 00:18:17;;;;;;;1.75;0.10;;;19.50;62.40;;;;;;5063608;28;20580;-42
2022/10/01 00:20:43;;;;;;;0.10;0.10;;;19.60;62.50;;;;;;5061002;28;20040;-28
2022/10/01 00:23:10;;;;;;;0.50;0.00;;;19.60;62.30;;;;;;5062621;28;20052;-41
2022/10/01 00:25:35;;;;;;;0.20;0.10;;;19.50;62.20;;;;;;5066379;28;20051;-43
2022/10/01 00:28:01;;;;;;;0.10;0.10;;;19.50;62.50;;;;;;5058686;28;20040;-14
2022/10/01 00:30:27;;;;;;;0.55;0.17;;;19.50;62.30;;;;;;5046482;28;20125;-18
2022/10/01 00:32:53;;;;;;;0.10;0.00;;;19.60;62.30;;;;;;5053004;28;20351;-14
2022/10/01 00:35:21;;;;;;;0.20;0.10;;;19.50;63.20;;;;;;5046749;28;20055;-14
2022/10/01 00:37:49;;;;;;;0.77;0.10;;;19.60;62.50;;;;;;5061147;28;20068;-14
2022/10/01 00:40:14;;;;;;;0.00;0.00;;;19.60;62.30;;;;;;5047086;28;20051;-14
2022/10/01 00:42:42;;;;;;;1.55;0.10;;;19.50;62.80;;;;;;5053384;28;20102;-15
2022/10/01 00:45:12;;;;;;;0.20;0.00;;;19.50;62.30;;;;;;5031537;28;20053;-14
2022/10/01 00:47:43;;;;;;;0.10;0.10;;;19.50;62.50;;;;;;5057311;28;20040;-13
2022/10/01 00:50:15;;;;;;;0.03;0.00;;;19.50;62.50;;;;;;5030981;28;20105;-13
2022/10/01 00:52:41;;;;;;;0.00;0.00;;;19.50;62.50;;;;;;5056683;28;20525;-14
2022/10/01 00:55:14;;;;;;;0.00;0.00;;;19.50;62.70;;;;;;5054671;28;20582;-14
2022/10/01 00:57:40;;;;;;;0.20;0.10;;;19.50;62.50;;;;;;5069357;28;20049;-14
2022/10/01 01:00:07;;;;;;;0.25;0.00;;;19.50;62.50;;;;;;5048106;28;20058;-15
2022/10/01 01:02:33;;;;;;;0.10;0.10;;;19.50;62.70;;;;;;5042143;28;20053;-17
2022/10/01 01:04:58;;;;;;;0.10;0.00;;;19.60;62.50;;;;;;5059227;28;20127;-14
2022/10/01 01:07:25;;;;;;;0.35;0.10;;;19.50;62.50;;;;;;5073834;28;20048;-14
2022/10/01 01:09:51;;;;;;;0.03;0.00;;;19.50;62.60;;;;;;5041902;28;20037;-16
2022/10/01 01:12:40;;;;;;;0.00;0.00;;;19.50;63.40;;;;;;5065702;28;20059;-14
2022/10/01 01:15:23;;;;;;;0.13;0.10;;;19.50;62.50;;;;;;5064426;28;21126;-14
2022/10/01 01:18:12;;;;;;;0.08;0.08;;;19.50;63.70;;;;;;5083094;28;20131;-14
2022/10/01 01:20:45;;;;;;;0.00;0.00;;;19.50;62.50;;;;;;5067477;28;20033;-14
2022/10/01 01:23:13;;;;;;;0.10;0.10;;;19.50;62.70;;;;;;5078730;28;20052;-14
2022/10/01 01:25:59;;;;;;;0.00;0.00;;;19.50;62.70;;;;;;5067728;28;20118;-14
2022/10/01 01:28:30;;;;;;;0.20;0.00;;;19.50;62.80;;;;;;5049733;28;20036;-20
2022/10/01 01:31:03;;;;;;;0.10;0.10;;;19.50;62.80;;;;;;5067009;28;20040;-14
2022/10/01 01:33:29;;;;;;;0.00;0.00;;;19.60;62.40;;;;;;5064949;28;20468;-14
2022/10/01 01:35:58;;;;;;;0.08;0.08;;;19.50;62.50;;;;;;5050604;28;20067;-14
2022/10/01 01:38:28;;;;;;;0.15;0.00;;;19.50;62.30;;;;;;5048346;28;20051;-14
2022/10/01 01:40:56;;;;;;;0.00;0.00;;;19.60;62.40;;;;;;5067106;28;20037;-18
2022/10/01 01:43:25;;;;;;;0.00;0.00;;;19.50;62.70;;;;;;5049060;28;20051;-14
2022/10/01 01:45:53;;;;;;;0.10;0.10;;;19.50;62.70;;;;;;5066485;28;20116;-14
2022/10/01 01:48:20;;;;;;;0.00;0.00;;;19.50;62.80;;;;;;5064869;28;20060;-14
2022/10/01 01:50:49;;;;;;;0.00;0.00;;;19.40;62.60;;;;;;5065617;28;20483;-14
2022/10/01 01:53:15;;;;;;;0.10;0.10;;;19.50;62.60;;;;;;5053516;28;20041;-14
2022/10/01 01:55:40;;;;;;;0.00;0.00;;;19.50;62.40;;;;;;5067581;28;20045;-19
2022/10/01 01:58:07;;;;;;;0.10;0.10;;;19.50;62.60;;;;;;5074994;28;20465;-20
2022/10/01 02:00:32;;;;;;;0.00;0.00;;;19.50;62.50;;;;;;5056986;28;20032;-15
2022/10/01 02:02:58;;;;;;;0.00;0.00;;;19.50;62.60;;;;;;5060591;28;20463;-14
2022/10/01 02:05:26;;;;;;;0.00;0.00;;;19.50;62.50;;;;;;5036574;28;20041;-14
2022/10/01 02:08:04;;;;;;;0.03;0.03;;;19.50;62.50;;;;;;5048349;28;20041;-14
2022/10/01 02:10:51;;;;;;;0.00;0.00;;;19.50;62.50;;;;;;5040706;28;20561;-14
2022/10/01 02:14:05;;;;;;;0.10;0.10;;;19.50;62.40;;;;;;5048631;28;20131;-14
2022/10/01 02:16:52;;;;;;;0.22;0.10;;;19.50;62.80;;;;;;5041283;28;20024;-14
2022/10/01 02:19:29;;;;;;;0.00;0.00;;;19.50;62.40;;;;;;5048505;28;20073;-18
2022/10/01 02:21:57;;;;;;;2.28;0.20;;;19.50;62.70;;;;;;5076484;28;20037;-14
2022/10/01 02:24:42;;;;;;;0.00;0.00;;;19.50;62.50;;;;;;5061477;28;20040;-14
2022/10/01 02:27:16;;;;;;;0.00;0.00;;;19.50;62.60;;;;;;5064698;28;20045;-16
2022/10/01 02:29:42;;;;;;;;;;;19.50;62.50;;;;;;5048258;28;20053;-14
2022/10/01 02:32:07;;;;;;;0.10;0.03;;;19.50;62.80;;;;;;5057821;28;20387;-14
2022/10/01 02:34:33;;;;;;;0.00;0.00;;;19.50;62.50;;;;;;5067299;28;20081;-14
2022/10/01 02:36:59;;;;;;;0.10;0.00;;;19.50;62.50;;;;;;5046148;28;20029;-14
2022/10/01 02:39:26;;;;;;;0.00;0.00;;;19.50;62.60;;;;;;5046550;28;20044;-15
2022/10/01 02:41:51;;;;;;;0.00;0.00;;;19.50;62.50;;;;;;5046433;28;20056;-21
2022/10/01 02:44:22;;;;;;;0.08;0.00;;;19.50;62.50;;;;;;5048005;28;20056;-14
2022/10/01 02:47:07;;;;;;;0.25;0.10;;;19.50;62.80;;;;;;5059877;28;20515;-13
2022/10/01 02:49:33;;;;;;;;;;;19.50;62.50;;;;;;5043899;28;20443;-14
2022/10/01 02:52:17;;;;;;;0.03;0.03;;;19.50;62.40;;;;;;5063562;28;19920;-14
2022/10/01 02:54:54;;;;;;;0.00;0.00;;;19.50;63.20;;;;;;5044102;28;20522;-14
2022/10/01 02:57:22;;;;;;;0.10;0.10;;;19.50;62.70;;;;;;5053652;28;20056;-14
2022/10/01 02:59:58;;;;;;;0.00;0.00;;;19.50;62.60;;;;;;5078460;28;20045;-14
2022/10/01 03:02:28;;;;;;;0.00;0.00;;;19.50;62.50;;;;;;5037414;28;20410;-15
2022/10/01 03:04:55;;;;;;;0.00;0.00;;;19.50;63.00;;;;;;5061588;28;20130;-15
2022/10/01 03:07:21;;;;;;;0.00;0.00;;;19.50;62.50;;;;;;5046462;28;20064;-14
2022/10/01 03:09:48;;;;;;;0.08;0.08;;;19.40;62.80;;;;;;5054130;28;20049;-15
2022/10/01 03:12:15;;;;;;;0.00;0.00;;;19.40;62.90;;;;;;5081576;28;20102;-15
2022/10/01 03:14:42;;;;;;;0.10;0.10;;;19.50;62.60;;;;;;5066268;28;20051;-15
2022/10/01 03:17:08;;;;;;;0.10;0.00;;;19.50;63.00;;;;;;5065479;28;20035;-13
2022/10/01 03:19:34;;;;;;;0.00;0.00;;;19.40;62.80;;;;;;5052884;28;20477;-14
2022/10/01 03:21:59;;;;;;;0.00;0.00;;;19.40;63.00;;;;;;5065194;28;20052;-21
2022/10/01 03:24:25;;;;;;;0.00;0.00;;;19.50;63.30;;;;;;5053508;28;20055;-14
2022/10/01 03:26:50;;;;;;;0.00;0.00;;;19.40;63.30;;;;;;5047477;28;20529;-14
2022/10/01 03:29:16;;;;;;;0.35;0.10;;;19.50;62.90;;;;;;5046874;28;20068;-14
2022/10/01 03:31:41;;;;;;;0.00;0.00;;;19.50;62.80;;;;;;5053739;28;20055;-13
2022/10/01 03:34:07;;;;;;;0.00;0.00;;;19.50;63.20;;;;;;5052875;28;20498;-14
2022/10/01 03:36:32;;;;;;;0.00;0.00;;;19.50;63.10;;;;;;5062655;28;20044;-14
2022/10/01 03:38:58;;;;;;;0.00;0.00;;;19.50;63.60;;;;;;5063074;28;20032;-14
2022/10/01 03:41:24;;;;;;;0.00;0.00;;;19.50;62.80;;;;;;5066090;28;20033;-14
2022/10/01 03:43:49;;;;;;;0.00;0.00;;;19.40;63.00;;;;;;5059736;28;20522;-14
2022/10/01 03:46:15;;;;;;;0.17;0.00;;;19.50;62.80;;;;;;5065097;28;20555;-14
2022/10/01 03:48:40;;;;;;;0.00;0.00;;;19.50;62.80;;;;;;5050524;28;20041;-14
2022/10/01 03:51:06;;;;;;;0.00;0.00;;;19.50;63.30;;;;;;5042729;28;20041;-14
2022/10/01 03:53:31;;;;;;;0.00;0.00;;;19.50;63.00;;;;;;5043224;28;20033;-17
2022/10/01 03:55:58;;;;;;;0.10;0.00;;;19.40;64.50;;;;;;5042578;28;20076;-18
2022/10/01 03:58:23;;;;;;;0.10;0.00;;;19.50;64.00;;;;;;5046706;28;20595;-14
2022/10/01 04:00:49;;;;;;;0.03;0.03;;;19.50;62.80;;;;;;5034837;28;20103;-14
2022/10/01 04:03:15;;;;;;;0.00;0.00;;;19.40;63.00;;;;;;5073960;28;20631;-16
2022/10/01 04:05:44;;;;;;;0.52;0.20;;;19.40;63.20;;;;;;5049477;28;20054;-20
2022/10/01 04:08:10;;;;;;;0.00;0.00;;;19.50;62.70;;;;;;5077998;28;20044;-14
2022/10/01 04:10:35;;;;;;;0.08;0.00;;;19.60;63.00;;;;;;5061749;28;20110;-30
2022/10/01 04:13:01;;;;;;;0.00;0.00;;;19.50;63.40;;;;;;5063389;28;20498;-14
2022/10/01 04:15:27;;;;;;;0.00;0.00;;;19.50;63.30;;;;;;5066461;28;20088;-14
2022/10/01 04:17:52;;;;;;;0.00;0.00;;;19.50;64.20;;;;;;5064019;28;20032;-14
2022/10/01 04:20:18;;;;;;;0.00;0.00;;;19.50;64.90;;;;;;5065917;28;20552;-14
2022/10/01 04:22:44;;;;;;;0.17;0.00;;;19.50;63.70;;;;;;5065338;28;20032;-13
2022/10/01 04:25:11;;;;;;;0.00;0.00;;;19.50;63.60;;;;;;5059069;28;20040;-16
2022/10/01 04:27:38;;;;;;;0.00;0.00;;;19.50;63.60;;;;;;5062155;28;20075;-15
2022/10/01 04:30:04;;;;;;;0.00;0.00;;;19.50;62.70;;;;;;5065050;28;20450;-15
2022/10/01 04:32:30;;;;;;;0.00;0.00;;;19.50;63.00;;;;;;5060871;28;20519;-19
2022/10/01 04:34:55;;;;;;;0.00;0.00;;;19.50;63.10;;;;;;5045457;28;20114;-14
2022/10/01 04:37:21;;;;;;;0.00;0.00;;;19.50;63.20;;;;;;5044527;28;20060;-14
2022/10/01 04:39:46;;;;;;;0.00;0.00;;;19.50;63.00;;;;;;5042824;28;20042;-14
2022/10/01 04:42:12;;;;;;;0.00;0.00;;;19.50;63.00;;;;;;5044362;28;20415;-15
2022/10/01 04:44:38;;;;;;;0.00;0.00;;;19.50;63.20;;;;;;5056080;28;20048;-20
2022/10/01 04:47:03;;;;;;;0.00;0.00;;;19.50;63.80;;;;;;5063997;28;20090;-16
2022/10/01 04:49:31;;;;;;;0.00;0.00;;;19.40;63.60;;;;;;5061352;28;20596;-14
2022/10/01 04:51:57;;;;;;;0.00;0.00;;;19.50;63.20;;;;;;5065311;28;20045;-17
2022/10/01 04:54:22;;;;;;;0.63;0.00;;;19.50;63.70;;;;;;5052985;28;20540;-14
2022/10/01 04:56:48;;;;;;;0.00;0.00;;;19.50;63.10;;;;;;5059011;28;20412;-14
2022/10/01 04:59:13;;;;;;;0.00;0.00;;;19.60;62.90;;;;;;5050665;28;20037;-14
2022/10/01 05:01:40;;;;;;;0.00;0.00;;;19.60;63.90;;;;;;5052227;28;20047;-14
2022/10/01 05:04:07;;;;;;;0.00;0.00;;;19.40;63.30;;;;;;5052900;28;20044;-20
2022/10/01 05:06:33;;;;;;;0.00;0.00;;;19.50;63.20;;;;;;5050218;28;20040;-14
2022/10/01 05:08:58;;;;;;;0.00;0.00;;;19.50;63.20;;;;;;5053563;28;20578;-17
2022/10/01 05:11:24;;;;;;;0.03;0.00;;;19.50;63.10;;;;;;5040249;28;20036;-15
2022/10/01 05:13:50;;;;;;;0.00;0.00;;;19.50;63.90;;;;;;5061789;28;20499;-15
2022/10/01 05:16:15;;;;;;;0.38;0.00;;;19.50;63.30;;;;;;5067433;28;20036;-15
2022/10/01 05:18:41;;;;;;;0.00;0.00;;;19.50;63.80;;;;;;5043934;28;20032;-15
2022/10/01 05:21:07;;;;;;;0.00;0.00;;;19.50;64.00;;;;;;5077650;28;20043;-14
2022/10/01 05:23:32;;;;;;;0.00;0.00;;;19.40;63.80;;;;;;5061082;28;20048;-18
2022/10/01 05:25:58;;;;;;;0.00;0.00;;;19.50;63.60;;;;;;5063012;28;20037;-16
2022/10/01 05:28:26;;;;;;;0.00;0.00;;;19.50;64.40;;;;;;5057686;28;20049;-13
2022/10/01 05:30:52;;;;;;;0.00;0.00;;;19.40;63.30;;;;;;5044392;28;20061;-13
2022/10/01 05:33:18;;;;;;;0.00;0.00;;;19.50;63.50;;;;;;5051211;28;20071;-13
2022/10/01 05:35:43;;;;;;;0.00;0.00;;;19.50;63.60;;;;;;5063718;28;20032;-13
2022/10/01 05:38:09;;;;;;;0.10;0.10;;;19.50;63.80;;;;;;5060518;28;20048;-13
2022/10/01 05:40:35;;;;;;;0.10;0.10;;;19.50;63.70;;;;;;5064730;28;20527;-13
2022/10/01 05:43:01;;;;;;;0.75;0.00;;;19.50;62.90;;;;;;5062986;28;20043;-14
2022/10/01 05:45:27;;;;;;;0.75;0.00;;;19.60;62.60;;;;;;5064024;28;20367;-15
2022/10/01 05:48:03;;;;;;;0.00;0.00;;;19.60;62.60;;;;;;5064232;28;20557;-13
2022/10/01 05:50:32;;;;;;;0.00;0.00;;;19.50;63.30;;;;;;5062579;28;20049;-13
2022/10/01 05:52:59;;;;;;;0.00;0.00;;;19.50;63.20;;;;;;5063059;28;20054;-13
2022/10/01 05:55:24;;;;;;;0.00;0.00;;;19.60;62.90;;;;;;4705912;28;10000124;-13
2022/10/01 05:57:58;;;;;;;0.00;0.00;;;19.50;62.90;;;;;;5055385;28;20048;-15
2022/10/01 06:00:25;;;;;;;0.00;0.00;;;19.60;63.20;;;;;;5057411;28;20060;-14
2022/10/01 06:02:51;;;;;;;0.00;0.00;;;19.50;63.10;;;;;;5036635;28;20136;-17
2022/10/01 06:05:18;;;;;;;0.00;0.00;;;19.50;63.90;;;;;;5040418;28;20055;-14
2022/10/01 06:07:43;;;;;;;0.28;0.00;;;19.50;64.20;;;;;;5028457;28;20045;-13
2022/10/01 06:10:09;;;;;;;0.17;0.00;;;19.50;64.00;;;;;;5050002;28;20044;-15
2022/10/01 06:12:35;;;;;;;0.10;0.00;;;19.50;63.50;;;;;;5039059;28;20134;-13
2022/10/01 06:15:00;;;;;;;0.17;0.00;;;19.50;64.20;;;;;;5038603;28;20102;-17
2022/10/01 06:17:26;;;;;;;0.00;0.00;;;19.50;64.50;;;;;;5044389;28;20080;-13
2022/10/01 06:19:51;;;;;;;1.13;0.00;;;19.50;64.10;;;;;;5055199;28;20457;-14
2022/10/01 06:22:17;;;;;;;0.90;0.00;;;19.60;63.10;;;;;;5040604;28;20204;-13
2022/10/01 06:24:42;;;;;;;0.00;0.00;;;19.50;64.00;;;;;;5035915;28;20041;-14
2022/10/01 06:27:10;;;;;;;0.57;0.00;;;19.50;64.70;;;;;;5047020;28;20045;-13
2022/10/01 06:29:36;;;;;;;0.63;0.00;;;19.50;63.30;;;;;;5059232;28;20047;-18
2022/10/01 06:32:01;;;;;;;0.20;0.00;;;19.60;63.10;;;;;;5056523;28;20361;-23
2022/10/01 06:34:27;;;;;;;0.00;0.00;;;19.60;63.10;;;;;;5050656;28;20091;-19
2022/10/01 06:36:52;;;;;;;0.00;0.00;;;19.60;63.20;;;;;;5050265;28;20057;-18
2022/10/01 06:39:18;;;;;;;0.22;0.00;;;19.50;63.40;;;;;;5044547;28;20063;-19
2022/10/01 06:41:43;;;;;;;0.00;0.00;;;19.60;63.70;;;;;;5049037;28;20048;-18
2022/10/01 06:44:09;;;;;;;0.00;0.00;;;19.60;63.90;;;;;;5056139;28;20064;-19
2022/10/01 06:46:35;;;;;;;0.03;0.00;;;19.60;63.50;;;;;;5053958;28;20557;-19
2022/10/01 06:49:01;;;;;;;0.13;0.00;;;19.60;64.00;;;;;;5038872;28;20067;-18
2022/10/01 06:54:11;;;;;;;0.00;0.00;;;19.60;63.80;;;;;;5065284;28;20126;-19
2022/10/01 06:56:36;;;;;;;0.00;0.00;;;19.60;63.70;;;;;;5068125;28;20090;-22
2022/10/01 06:59:02;;;;;;;0.20;0.10;;;19.60;64.00;;;;;;5064541;28;20044;-18
2022/10/01 07:01:30;;;;;;;8.68;0.08;;;19.60;64.10;;;;;;5055163;28;20040;-18
2022/10/01 07:03:55;;;;;;;0.00;0.00;;;19.60;64.00;;;;;;5046027;28;20086;-18
2022/10/01 07:06:21;;;;;;;0.20;0.10;;;19.60;64.10;;;;;;5045581;28;20134;-18
2022/10/01 07:08:50;;;;;;;0.55;0.00;;;19.60;64.00;;;;;;5051270;28;20060;-18
2022/10/01 07:11:16;;;;;;;0.47;0.10;;;19.60;64.10;;;;;;5043995;28;20045;-18
2022/10/01 07:13:41;;;;;;;0.35;0.05;;;19.60;63.80;;;;;;5045238;28;20388;-18
2022/10/01 07:16:07;;;;;;;0.75;0.00;;;19.60;64.00;;;;;;5045928;28;20033;-18
2022/10/01 07:18:32;;;;;;;0.10;0.00;;;19.60;64.20;;;;;;5042001;28;20485;-18
2022/10/01 07:20:58;;;;;;;0.00;0.00;;;19.60;64.10;;;;;;5046617;28;20060;-18
2022/10/01 07:23:24;;;;;;;0.00;0.00;;;19.60;64.30;;;;;;5049102;28;20037;-19
2022/10/01 07:25:49;;;;;;;0.10;0.00;;;19.60;64.30;;;;;;5066323;28;20037;-19
2022/10/01 07:28:18;;;;;;;0.20;0.00;;;19.60;64.20;;;;;;5042746;28;20108;-18
2022/10/01 07:30:56;;;;;;;1.65;0.00;;;19.60;64.30;;;;;;5046535;28;20052;-18
2022/10/01 07:33:22;;;;;;;0.10;0.00;;;19.60;64.20;;;;;;5051275;28;20048;-18
2022/10/01 07:35:48;;;;;;;0.00;0.00;;;19.60;64.20;;;;;;5050622;28;20427;-18
2022/10/01 07:38:13;;;;;;;0.00;0.00;;;19.60;64.30;;;;;;5044442;28;20047;-20
2022/10/01 07:40:39;;;;;;;0.10;0.00;;;19.60;64.20;;;;;;5047446;28;20414;-18
2022/10/01 07:43:05;;;;;;;0.10;0.00;;;19.60;64.00;;;;;;5042433;28;20084;-18
2022/10/01 07:45:31;;;;;;;0.03;0.00;;;19.60;64.30;;;;;;5063545;28;20152;-18
2022/10/01 07:48:00;;;;;;;0.30;0.15;;;19.60;64.10;;;;;;5066143;28;20509;-18
2022/10/01 07:50:26;;;;;;;0.00;0.00;;;19.60;64.20;;;;;;5063039;28;20055;-18
2022/10/01 07:52:53;;;;;;;0.00;0.00;;;19.60;64.10;;;;;;5064777;28;20131;-18
2022/10/01 07:55:19;;;;;;;0.65;0.00;;;19.60;64.00;;;;;;5055028;28;20517;-18
2022/10/01 07:57:50;;;;;;;0.85;0.00;;;19.60;64.20;;;;;;5050005;28;20088;-19
2022/10/01 08:00:15;;;;;;;0.10;0.00;;;19.60;63.90;;;;;;5041075;28;20143;-18
2022/10/01 08:02:49;;;;;;;0.00;0.00;;;19.60;64.00;;;;;;5046728;28;20702;-18
2022/10/01 08:05:19;;;;;;;0.10;0.10;;;19.70;63.80;;;;;;5057946;28;20037;-19
2022/10/01 08:07:45;;;;;;;0.10;0.00;;;19.60;63.80;;;;;;5065094;28;20064;-19
2022/10/01 08:10:11;;;;;;;0.00;0.00;;;19.60;63.80;;;;;;5061813;28;20414;-18
2022/10/01 08:12:36;;;;;;;0.40;0.35;;;19.60;63.80;;;;;;5060207;28;20048;-18
2022/10/01 08:15:02;;;;;;;0.00;0.00;;;19.60;63.90;;;;;;5062208;28;20494;-19
2022/10/01 08:17:28;;;;;;;0.35;0.00;;;19.60;64.00;;;;;;5041791;28;20074;-19
2022/10/01 08:19:54;;;;;;;0.08;0.00;;;19.60;63.90;;;;;;5046111;28;20052;-18
2022/10/01 08:22:19;;;;;;;0.00;0.00;;;19.70;63.80;;;;;;5050855;28;20044;-23
2022/10/01 08:24:45;;;;;;;0.00;0.00;;;19.70;63.50;;;;;;5057663;28;20048;-19
2022/10/01 08:27:10;;;;;;;0.00;0.00;;;19.60;63.70;;;;;;5045979;28;20044;-20
2022/10/01 08:29:36;;;;;;;0.17;0.00;;;19.70;63.70;;;;;;5036453;28;20139;-20
2022/10/01 08:32:01;;;;;;;0.00;0.00;;;19.70;63.80;;;;;;5040233;28;20403;-18
2022/10/01 08:34:27;;;;;;;0.00;0.00;;;19.70;63.50;;;;;;5052624;28;20102;-18
2022/10/01 08:36:52;;;;;;;0.08;0.00;;;19.70;63.30;;;;;;5060486;28;20140;-19
2022/10/01 08:39:19;;;;;;;0.10;0.00;;;19.70;63.60;;;;;;5048327;28;20040;-18
2022/10/01 08:42:10;;;;;;;0.10;0.00;;;19.70;63.60;;;;;;5056740;28;20457;-18
2022/10/01 08:44:40;;;;;;;0.00;0.00;;;19.70;63.10;;;;;;5060532;28;20040;-18
2022/10/01 08:47:10;;;;;;;0.20;0.00;;;19.70;64.20;;;;;;5044821;28;20030;-18
2022/10/01 08:49:43;;;;;;;0.52;0.00;;;19.70;63.20;;;;;;5077629;28;20052;-19
2022/10/01 08:52:21;;;;;;;0.20;0.00;;;19.80;63.20;;;;;;5060416;28;20460;-19
2022/10/01 08:55:00;;;;;;;0.15;0.00;;;19.80;63.00;;;;;;5052745;28;20083;-19
2022/10/01 08:57:31;;;;;;;0.05;0.00;;;19.70;63.60;;;;;;5061284;28;20051;-19
2022/10/01 08:59:58;;;;;;;0.10;0.00;;;19.80;63.20;;;;;;5064752;28;20043;-18
2022/10/01 09:02:28;;;;;;;0.10;0.00;;;19.80;63.20;;;;;;5049303;28;20503;-18
2022/10/01 09:04:59;;;;;;;0.08;0.00;;;19.80;63.10;;;;;;5040048;28;20523;-19
2022/10/01 09:07:36;;;;;;;0.00;0.00;;;19.80;63.40;;;;;;5041773;28;20033;-18
2022/10/01 09:10:11;;;;;;;0.00;0.00;;;19.80;63.40;;;;;;5061307;28;20164;-24
2022/10/01 09:12:55;;;;;;;1.23;0.00;;;19.80;63.60;;;;;;5071174;28;21180;-19
2022/10/01 09:15:30;;;;;;;0.00;0.00;;;19.80;63.70;;;;;;5062386;28;20136;-18
2022/10/01 09:18:32;;;;;;;0.00;0.00;;;19.80;63.30;;;;;;5051057;28;20539;-19
2022/10/01 09:20:58;;;;;;;0.10;0.00;;;19.80;63.30;;;;;;5061338;28;20036;-18
2022/10/01 09:23:31;;;;;;;1.27;0.00;;;19.80;63.40;;;;;;5048247;28;20051;-20
2022/10/01 09:25:58;;;;;;;0.00;0.00;;;19.80;63.30;;;;;;5042407;28;20033;-20
2022/10/01 09:28:32;;;;;;;0.25;0.10;;;19.80;63.30;;;;;;5052553;28;20070;-19
2022/10/01 09:31:19;;;;;;;0.00;0.00;;;19.80;63.60;;;;;;5049667;28;20551;-18
2022/10/01 09:34:10;;;;;;;0.00;0.00;;;19.80;64.00;;;;;;5052754;28;20047;-18
2022/10/01 09:36:37;;;;;;;0.10;0.00;;;19.80;63.40;;;;;;5062075;28;20053;-19
2022/10/01 09:39:08;;;;;;;0.00;0.00;;;19.90;62.90;;;;;;5049061;28;20048;-18
2022/10/01 09:41:33;;;;;;;0.00;0.00;;;19.90;62.90;;;;;;5056693;28;20529;-19
2022/10/01 09:44:00;;;;;;;0.98;0.00;;;19.80;63.40;;;;;;5066294;28;20048;-18
2022/10/01 09:46:26;;;;;;;0.08;0.00;;;19.80;63.20;;;;;;5083175;28;20046;-18
2022/10/01 09:49:09;;;;;;;0.50;0.00;;;19.90;63.10;;;;;;5063107;28;20044;-18
2022/10/01 09:51:41;;;;;;;0.00;0.00;;;19.90;63.10;;;;;;5051834;28;20498;-18
2022/10/01 09:54:26;;;;;;;0.10;0.00;;;19.90;63.00;;;;;;5054628;28;20040;-18
2022/10/01 09:57:09;;;;;;;0.10;0.10;;;19.90;63.10;;;;;;5046861;28;20041;-18
2022/10/01 09:59:49;;;;;;;0.13;0.05;;;19.90;63.90;;;;;;5056161;28;20067;-18
2022/10/01 10:02:25;;;;;;;0.10;0.00;;;19.90;63.70;;;;;;5056229;28;20503;-18
2022/10/01 10:05:05;;;;;;;0.10;0.10;;;19.90;62.90;;;;;;5014068;28;20517;-18
2022/10/01 10:07:31;;;;;;;0.30;0.00;;;19.90;63.00;;;;;;5039935;28;20029;-18
2022/10/01 10:10:06;;;;;;;0.00;0.00;;;19.90;62.80;;;;;;5046068;28;20431;-18
2022/10/01 10:12:33;;;;;;;0.00;0.00;;;20.00;63.00;;;;;;5058929;28;20595;-19
2022/10/01 10:15:05;;;;;;;0.10;0.00;;;20.00;62.90;;;;;;5041803;28;20764;-19
2022/10/01 10:17:31;;;;;;;0.00;0.00;;;20.00;62.80;;;;;;5050686;28;20029;-18
2022/10/01 10:19:57;;;;;;;0.00;0.00;;;20.00;62.80;;;;;;4764771;28;10001166;-18
2022/10/01 10:22:24;;;;;;;0.10;0.00;;;20.00;62.80;;;;;;5065000;28;20262;-19
2022/10/01 10:24:57;;;;;;;0.00;0.00;;;20.00;62.80;;;;;;5047504;28;20049;-18
2022/10/01 10:27:27;;;;;;;0.00;0.00;;;20.00;62.80;;;;;;5044953;28;20593;-17
2022/10/01 10:30:15;;;;;;;0.10;0.00;;;20.10;63.10;;;;;;5038909;28;20053;-19
2022/10/01 10:32:41;;;;;;;0.00;0.00;;;20.10;63.10;;;;;;5052176;28;20572;-19
2022/10/01 10:35:09;;;;;;;0.10;0.00;;;20.10;63.00;;;;;;5075606;28;20044;-18
2022/10/01 10:37:47;;;;;;;0.22;0.03;;;20.10;63.40;;;;;;5054197;28;20060;-19
2022/10/01 10:40:16;;;;;;;1.45;0.03;;;20.10;63.10;;;;;;5037644;28;20065;-18
2022/10/01 10:42:49;;;;;;;0.00;0.00;;;20.10;63.00;;;;;;5026873;28;20064;-18
2022/10/01 10:45:18;;;;;;;0.00;0.00;;;20.10;63.40;;;;;;5057821;28;20114;-19
2022/10/01 10:47:48;;;;;;;0.00;0.00;;;20.10;63.20;;;;;;5058182;28;20573;-19
2022/10/01 10:50:25;;;;;;;0.00;0.00;;;20.10;63.00;;;;;;5043926;28;20128;-18
2022/10/01 10:52:50;;;;;;;0.20;0.00;;;20.10;63.00;;;;;;5044344;28;20052;-18
2022/10/01 10:55:29;;;;;;;0.25;0.10;;;20.10;63.30;;;;;;5045604;28;20045;-19
2022/10/01 10:57:54;;;;;;;0.65;0.03;;;20.10;63.00;;;;;;5047203;28;20045;-18
2022/10/01 11:00:24;;;;;;;0.20;0.10;;;20.10;63.00;;;;;;5040778;28;20075;-18
2022/10/01 11:03:00;;;;;;;0.00;0.00;;;20.10;63.20;;;;;;5053223;28;20044;-19
2022/10/01 11:05:28;;;;;;;0.00;0.00;;;20.10;63.40;;;;;;5041743;28;20136;-20
2022/10/01 11:07:57;;;;;;;0.13;0.10;;;20.10;63.00;;;;;;5055219;28;20032;-25
2022/10/01 11:10:25;;;;;;;0.10;0.00;;;20.10;63.30;;;;;;5046764;28;20523;-19
2022/10/01 11:12:57;;;;;;;2.78;0.10;;;20.10;63.30;;;;;;5046530;28;20520;-18
2022/10/01 11:15:42;;;;;;;0.10;0.10;;;20.10;63.20;;;;;;5060223;28;20040;-18
2022/10/01 11:18:29;;;;;;;0.05;0.00;;;20.10;63.20;;;;;;5063681;28;20499;-18
2022/10/01 11:21:06;;;;;;;0.10;0.00;;;20.10;63.30;;;;;;5045533;28;20422;-18
2022/10/01 11:23:52;;;;;;;0.10;0.00;;;20.10;63.40;;;;;;5061273;28;20052;-19
2022/10/01 11:26:32;;;;;;;0.10;0.00;;;20.10;63.30;;;;;;5054114;28;20037;-18
2022/10/01 11:29:10;;;;;;;0.25;0.10;;;20.20;63.30;;;;;;5039615;28;20588;-18
2022/10/01 11:31:45;;;;;;;0.10;0.00;;;20.20;63.00;;;;;;5043529;28;20037;-18
2022/10/01 11:34:48;;;;;;;0.10;0.00;;;20.20;63.00;;;;;;5035574;28;20094;-19
2022/10/01 11:37:28;;;;;;;0.40;0.00;;;20.20;63.00;;;;;;5063958;28;20050;-18
2022/10/01 11:39:54;;;;;;;0.00;0.00;;;20.20;63.00;;;;;;5049222;28;21041;-18
2022/10/01 11:42:23;;;;;;;0.00;0.00;;;20.20;62.90;;;;;;5046306;28;20099;-19
2022/10/01 11:44:56;;;;;;;0.30;0.20;;;20.30;63.10;;;;;;5056237;28;20129;-19
2022/10/01 11:47:43;;;;;;;0.00;0.00;;;20.30;63.00;;;;;;5040619;28;20047;-18
2022/10/01 11:50:20;;;;;;;0.38;0.10;;;20.30;63.10;;;;;;5062999;28;20052;-19
2022/10/01 11:53:20;;;;;;;0.80;0.00;;;20.30;63.00;;;;;;5070108;28;20179;-19
2022/10/01 11:58:51;;;;;;;0.10;0.00;;;20.30;62.90;;;;;;5064712;28;20102;-19
2022/10/01 12:01:27;;;;;;;0.15;0.00;;;20.30;62.90;;;;;;5045760;28;20033;-19
2022/10/01 12:03:53;;;;;;;0.20;0.10;;;20.30;63.70;;;;;;5074530;28;20167;-18
2022/10/01 12:06:48;;;;;;;0.10;0.00;;;20.30;62.90;;;;;;5061672;28;20127;-19
2022/10/01 12:09:22;;;;;;;0.05;0.00;;;20.40;62.90;;;;;;5042175;28;20052;-18
2022/10/01 12:11:51;;;;;;;;;;;20.40;62.80;;;;;;5043169;28;20040;-18
2022/10/01 12:14:19;;;;;;;0.15;0.10;;;20.40;62.80;;;;;;5044469;28;19917;-18
2022/10/01 12:16:54;;;;;;;0.03;0.00;;;20.40;62.80;;;;;;5053611;28;20064;-19
2022/10/01 12:19:23;;;;;;;0.55;0.10;;;20.40;62.80;;;;;;5029970;28;20059;-19
2022/10/01 12:21:56;;;;;;;0.00;0.00;;;20.40;62.70;;;;;;5058522;28;20040;-19
2022/10/01 12:24:28;;;;;;;0.40;0.05;;;20.40;62.70;;;;;;5063917;28;20076;-19
2022/10/01 12:27:18;;;;;;;0.40;0.00;;;20.40;62.70;;;;;;5065833;28;20046;-18
2022/10/01 12:29:56;;;;;;;0.20;0.00;;;20.50;62.60;;;;;;5048825;28;20067;-37
2022/10/01 12:32:33;;;;;;;0.20;0.10;;;20.40;62.60;;;;;;5042814;28;20063;-37
2022/10/01 12:35:17;;;;;;;0.00;0.00;;;20.50;62.70;;;;;;5027407;28;20116;-36
2022/10/01 12:38:18;;;;;;;0.38;0.10;;;20.50;62.50;;;;;;5036936;28;20045;-35
2022/10/01 12:40:54;;;;;;;0.10;0.00;;;20.50;62.70;;;;;;5046789;28;20304;-35
2022/10/01 12:44:04;;;;;;;0.00;0.00;;;20.50;62.70;;;;;;5035087;28;20076;-35
2022/10/01 12:46:48;;;;;;;0.30;0.20;;;20.50;62.70;;;;;;5021995;28;20127;-39
2022/10/01 12:49:27;;;;;;;0.13;0.00;;;20.50;62.70;;;;;;5036886;28;20457;-36
2022/10/01 12:52:10;;;;;;;0.50;0.10;;;20.50;62.70;;;;;;5064718;28;20422;-37
2022/10/01 12:54:51;;;;;;;0.10;0.10;;;20.50;62.70;;;;;;5051898;28;20143;-58
2022/10/01 12:57:21;;;;;;;0.70;0.10;;;20.50;62.70;;;;;;5055009;28;20041;-40
2022/10/01 12:59:58;;;;;;;0.20;0.10;;;20.50;62.80;;;;;;5046768;28;20064;-40
2022/10/01 13:02:26;;;;;;;0.90;0.10;;;20.50;62.70;;;;;;5046676;28;20052;-39
2022/10/01 13:05:01;;;;;;;0.10;0.08;;;20.50;62.70;;;;;;5037212;28;20049;-39
2022/10/01 13:07:36;;;;;;;0.10;0.00;;;20.60;63.50;;;;;;5054334;28;20575;-39
2022/10/01 13:10:34;;;;;;;0.40;0.10;;;20.50;62.70;;;;;;5044285;28;20045;-38